createdAt,value
2017-09-11T00:00:46.058Z,42.19
2017-09-11T00:03:13.668Z,42.20
2017-09-11T00:05:41.336Z,42.16
2017-09-11T00:08:09.221Z,42.30
2017-09-11T00:10:36.755Z,42.16
2017-09-11T00:13:04.735Z,42.26
2017-09-11T00:15:32.308Z,42.25
2017-09-11T00:17:59.982Z,42.26
2017-09-11T00:20:27.625Z,42.20
2017-09-11T00:22:55.302Z,42.19
2017-09-11T00:25:22.894Z,42.29
2017-09-11T00:27:50.449Z,42.24
2017-09-11T00:30:18.044Z,42.30
2017-09-11T00:32:45.681Z,42.22
2017-09-11T00:35:13.333Z,42.23
2017-09-11T00:37:40.994Z,42.32
2017-09-11T00:40:08.642Z,42.32
2017-09-11T00:42:36.266Z,42.26
2017-09-11T00:45:04.500Z,42.28
2017-09-11T00:47:32.101Z,42.34
2017-09-11T00:49:59.747Z,42.26
2017-09-11T00:52:27.357Z,42.33
2017-09-11T00:54:54.968Z,42.35
2017-09-11T00:57:22.716Z,42.36
2017-09-11T00:59:50.518Z,42.30
2017-09-11T01:02:18.094Z,42.35
2017-09-11T01:04:45.758Z,42.03
2017-09-11T01:07:13.435Z,41.91
2017-09-11T01:09:41.018Z,41.99
2017-09-11T01:12:08.606Z,41.98
2017-09-11T01:14:36.276Z,42.07
2017-09-11T01:17:04.078Z,42.12
2017-09-11T01:19:31.680Z,42.07
2017-09-11T01:21:59.335Z,42.12
2017-09-11T01:24:26.880Z,42.12
2017-09-11T01:26:54.537Z,42.15
2017-09-11T01:29:22.187Z,42.25
2017-09-11T01:31:50.001Z,42.21
2017-09-11T01:34:17.651Z,42.20
2017-09-11T01:36:45.460Z,42.25
2017-09-11T01:39:13.332Z,42.23
2017-09-11T01:41:40.924Z,42.22
2017-09-11T01:44:08.626Z,42.24
2017-09-11T01:46:37.106Z,42.19
2017-09-11T01:49:04.975Z,42.26
2017-09-11T01:51:32.586Z,42.16
2017-09-11T01:54:00.186Z,42.15
2017-09-11T01:56:27.832Z,42.15
2017-09-11T01:58:55.404Z,42.13
2017-09-11T02:01:23.023Z,42.17
2017-09-11T02:03:50.582Z,41.99
2017-09-11T02:06:18.189Z,42.09
2017-09-11T02:08:45.803Z,42.00
2017-09-11T02:11:15.322Z,42.04
2017-09-11T02:13:42.927Z,42.02
2017-09-11T02:16:10.559Z,41.94
2017-09-11T02:18:38.162Z,41.90
2017-09-11T02:21:05.843Z,41.91
2017-09-11T02:23:33.469Z,41.88
2017-09-11T02:26:01.293Z,41.93
2017-09-11T02:28:28.881Z,41.79
2017-09-11T02:30:56.500Z,41.75
2017-09-11T02:33:24.173Z,41.72
2017-09-11T02:35:51.814Z,41.70
2017-09-11T02:38:19.551Z,41.60
2017-09-11T02:40:47.143Z,41.67
2017-09-11T02:43:14.901Z,41.61
2017-09-11T02:45:42.547Z,41.60
2017-09-11T02:48:10.101Z,41.65
2017-09-11T02:50:37.758Z,42.28
2017-09-11T02:53:05.382Z,41.65
2017-09-11T02:55:32.923Z,41.62
2017-09-11T02:58:00.705Z,41.65
2017-09-11T03:00:28.411Z,41.65
2017-09-11T03:02:56.025Z,41.65
2017-09-11T03:05:23.598Z,41.69
2017-09-11T03:07:51.185Z,41.69
2017-09-11T03:10:19.246Z,41.56
2017-09-11T03:12:47.022Z,41.54
2017-09-11T03:15:14.695Z,41.60
2017-09-11T03:17:42.250Z,41.61
2017-09-11T03:20:10.031Z,41.98
2017-09-11T03:22:37.706Z,41.70
2017-09-11T03:25:06.329Z,41.64
2017-09-11T03:27:33.963Z,41.64
2017-09-11T03:30:01.737Z,41.60
2017-09-11T03:32:29.266Z,41.58
2017-09-11T03:34:56.921Z,41.62
2017-09-11T03:37:24.499Z,41.64
2017-09-11T03:39:52.166Z,41.46
2017-09-11T03:42:19.869Z,41.50
2017-09-11T03:44:47.463Z,41.58
2017-09-11T03:47:15.274Z,41.52
2017-09-11T03:49:42.953Z,41.69
2017-09-11T03:52:10.583Z,41.52
2017-09-11T03:54:38.177Z,41.59
2017-09-11T03:57:05.794Z,41.63
2017-09-11T04:02:06.283Z,41.22
2017-09-11T04:04:34.003Z,41.41
2017-09-11T04:07:01.624Z,41.15
2017-09-11T04:09:29.260Z,41.42
2017-09-11T04:11:57.017Z,41.29
2017-09-11T04:14:24.671Z,40.94
2017-09-11T04:16:52.189Z,41.21
2017-09-11T04:19:20.002Z,40.85
2017-09-11T04:21:47.597Z,40.96
2017-09-11T04:24:15.207Z,40.76
2017-09-11T04:26:42.866Z,40.48
2017-09-11T04:29:10.579Z,40.21
2017-09-11T04:34:12.775Z,39.42
2017-09-11T04:36:40.542Z,39.35
2017-09-11T04:39:08.089Z,39.33
2017-09-11T04:41:35.851Z,38.98
2017-09-11T04:44:03.934Z,38.45
2017-09-11T04:46:31.813Z,38.09
2017-09-11T04:49:00.310Z,37.93
2017-09-11T04:51:28.624Z,37.62
2017-09-11T04:53:57.191Z,37.31
2017-09-11T04:56:25.270Z,37.07
2017-09-11T04:58:53.017Z,37.05
2017-09-11T05:01:21.017Z,37.39
2017-09-11T05:03:48.720Z,37.81
2017-09-11T05:06:17.010Z,37.98
2017-09-11T05:08:44.670Z,38.15
2017-09-11T05:11:12.319Z,38.20
2017-09-11T05:13:40.016Z,38.39
2017-09-11T05:16:07.579Z,38.54
2017-09-11T05:18:35.094Z,38.72
2017-09-11T05:21:02.655Z,38.80
2017-09-11T05:23:30.207Z,38.88
2017-09-11T05:25:57.730Z,38.98
2017-09-11T05:28:25.303Z,38.96
2017-09-11T05:30:52.841Z,38.99
2017-09-11T05:33:20.501Z,39.09
2017-09-11T05:35:48.089Z,39.05
2017-09-11T05:38:15.634Z,39.02
2017-09-11T05:40:43.184Z,39.05
2017-09-11T05:43:10.819Z,39.16
2017-09-11T05:46:09.454Z,39.10
2017-09-11T05:48:37.193Z,39.20
2017-09-11T05:51:06.642Z,39.34
2017-09-11T05:53:34.958Z,39.27
2017-09-11T06:01:12.403Z,39.09
2017-09-11T07:22:55.436Z,38.32
2017-09-11T07:25:33.072Z,38.48
2017-09-11T07:28:21.899Z,38.23
2017-09-11T07:30:56.278Z,38.63
2017-09-11T07:33:26.518Z,38.93
2017-09-11T07:38:42.229Z,38.54
2017-09-11T12:15:13.578Z,37.25
2017-09-11T13:29:11.338Z,37.35
2017-09-11T13:35:35.459Z,37.44
2017-09-11T13:41:05.371Z,37.40
2017-09-11T13:43:34.471Z,37.48
2017-09-11T14:00:13.802Z,37.60
2017-09-11T14:31:14.514Z,37.26
2017-09-11T15:26:33.144Z,37.86
2017-09-11T15:29:22.500Z,37.86
2017-09-11T16:48:35.953Z,38.62
2017-09-11T17:22:07.136Z,38.53
2017-09-11T18:23:35.075Z,38.05
2017-09-11T18:26:02.823Z,38.22
2017-09-11T18:28:30.945Z,38.18
2017-09-11T18:30:58.662Z,38.09
2017-09-11T18:33:26.299Z,38.11
2017-09-11T18:35:54.241Z,38.17
2017-09-11T18:38:23.315Z,38.07
2017-09-11T18:43:38.081Z,38.12
2017-09-11T18:46:06.068Z,38.44
2017-09-11T18:48:33.636Z,38.47
2017-09-11T18:51:01.765Z,38.63
2017-09-11T18:53:32.922Z,38.38
2017-09-11T18:56:00.611Z,38.48
2017-09-11T18:58:31.851Z,38.45
2017-09-11T19:01:00.065Z,38.34
2017-09-11T19:03:28.332Z,38.24
2017-09-11T19:05:58.982Z,38.47
2017-09-11T19:08:26.625Z,38.37
2017-09-11T19:10:54.341Z,38.12
2017-09-11T19:13:22.024Z,38.06
2017-09-11T19:15:49.586Z,37.90
2017-09-11T19:18:17.449Z,38.32
2017-09-11T19:20:58.107Z,38.16
2017-09-11T19:23:26.345Z,37.99
2017-09-11T19:26:01.931Z,38.24
2017-09-11T19:28:29.596Z,38.20
2017-09-11T19:30:57.237Z,38.22
2017-09-11T19:33:25.125Z,38.17
2017-09-11T19:35:53.340Z,38.00
2017-09-11T19:38:21.104Z,38.17
2017-09-11T19:40:48.794Z,38.11
2017-09-11T19:43:16.456Z,38.17
2017-09-11T19:45:46.676Z,38.11
2017-09-11T19:48:14.324Z,38.01
2017-09-11T19:50:41.922Z,38.10
2017-09-11T19:53:09.693Z,38.13
2017-09-11T19:55:37.260Z,38.20
2017-09-11T19:58:17.939Z,38.02
2017-09-11T20:00:45.842Z,38.22
2017-09-11T20:03:13.433Z,38.05
2017-09-11T20:05:42.118Z,37.99
2017-09-11T20:08:10.128Z,38.20
2017-09-11T20:10:37.753Z,38.05
2017-09-11T20:13:06.023Z,38.08
2017-09-11T20:15:41.312Z,38.01
2017-09-11T20:18:09.175Z,38.17
2017-09-11T20:20:36.819Z,37.83
2017-09-11T20:23:04.693Z,37.90
2017-09-11T20:25:39.929Z,38.18
2017-09-11T20:28:07.573Z,37.93
2017-09-11T20:30:56.193Z,38.16
2017-09-11T20:33:23.885Z,38.10
2017-09-11T20:35:51.510Z,39.19
2017-09-11T20:38:19.129Z,39.05
2017-09-11T20:40:46.660Z,38.75
2017-09-11T20:43:14.408Z,38.64
2017-09-11T20:45:45.118Z,38.51
2017-09-11T20:48:13.096Z,38.34
2017-09-11T20:50:40.753Z,38.35
2017-09-11T20:53:08.365Z,38.35
2017-09-11T20:55:36.101Z,38.59
2017-09-11T20:58:03.677Z,38.58
2017-09-11T21:00:31.241Z,38.63
2017-09-11T21:02:58.904Z,38.73
2017-09-11T21:05:26.586Z,38.87
2017-09-11T21:07:55.146Z,38.89
2017-09-11T21:10:22.796Z,38.96
2017-09-11T21:12:50.367Z,39.11
2017-09-11T21:15:26.622Z,39.02
2017-09-11T21:17:57.366Z,39.06
2017-09-11T21:20:26.482Z,39.23
2017-09-11T21:23:07.440Z,39.17
2017-09-11T21:28:08.990Z,39.42
2017-09-11T21:30:40.166Z,39.39
2017-09-11T21:33:07.799Z,39.44
2017-09-11T21:35:35.452Z,39.48
2017-09-11T21:38:03.094Z,39.80
2017-09-11T21:40:31.782Z,39.58
2017-09-11T21:42:59.645Z,39.66
2017-09-11T21:45:29.121Z,39.66
2017-09-11T21:47:57.211Z,39.78
2017-09-11T21:50:24.869Z,39.79
2017-09-11T21:52:54.985Z,39.92
2017-09-11T21:55:24.088Z,40.09
2017-09-11T21:57:51.795Z,40.01
2017-09-11T22:00:19.717Z,40.07
2017-09-11T22:02:47.393Z,40.16
2017-09-11T22:05:15.177Z,40.22
2017-09-11T22:07:42.956Z,40.33
2017-09-11T22:10:10.625Z,40.42
2017-09-11T22:12:38.338Z,40.54
2017-09-11T22:15:06.210Z,40.53
2017-09-11T22:17:33.762Z,40.63
2017-09-11T22:20:01.390Z,40.63
2017-09-11T22:22:29.005Z,40.76
2017-09-11T22:24:57.582Z,40.86
2017-09-11T22:27:25.542Z,40.91
2017-09-11T22:29:53.095Z,40.95
2017-09-11T22:32:20.702Z,40.98
2017-09-11T22:37:22.166Z,41.18
2017-09-11T22:39:49.933Z,41.17
2017-09-11T22:42:17.513Z,41.20
2017-09-11T22:44:45.153Z,41.26
2017-09-11T22:47:12.817Z,41.33
2017-09-11T22:49:40.576Z,41.31
2017-09-11T22:52:08.173Z,41.43
2017-09-11T22:54:36.598Z,41.46
2017-09-11T22:57:05.096Z,41.52
2017-09-11T22:59:32.854Z,41.56
2017-09-11T23:02:00.647Z,41.56
2017-09-11T23:04:28.267Z,41.62
2017-09-11T23:06:56.553Z,41.67
2017-09-11T23:09:24.461Z,41.68
2017-09-11T23:11:52.075Z,41.74
2017-09-11T23:14:19.696Z,41.73
2017-09-11T23:16:47.331Z,41.76
2017-09-11T23:19:15.055Z,41.80
2017-09-11T23:21:42.818Z,41.90
2017-09-11T23:24:10.497Z,41.95
2017-09-11T23:26:38.128Z,41.98
2017-09-11T23:29:05.791Z,41.99
2017-09-11T23:31:33.405Z,42.05
2017-09-11T23:34:01.002Z,42.06
2017-09-11T23:36:29.906Z,42.10
2017-09-11T23:38:57.600Z,42.10
2017-09-11T23:41:28.804Z,42.20
2017-09-11T23:43:56.395Z,42.25
2017-09-11T23:46:24.158Z,42.26
2017-09-11T23:48:51.780Z,42.28
2017-09-11T23:51:19.374Z,42.26
2017-09-11T23:53:47.371Z,42.35
2017-09-11T23:56:14.932Z,42.35
2017-09-11T23:58:42.588Z,42.45
